sensor_id;sensor_type;location;lat;lon;timestamp;P1;durP1;ratioP1;P2;durP2;ratioP2
71679;SDS011;59512;42.662;23.254;2022-07-23T00:01:25;11.33;;;4.83;;
71679;SDS011;59512;42.662;23.254;2022-07-23T00:03:52;10.40;;;5.40;;
71679;SDS011;59512;42.662;23.254;2022-07-23T00:06:19;10.18;;;4.95;;
71679;SDS011;59512;42.662;23.254;2022-07-23T00:08:44;8.83;;;4.80;;
71679;SDS011;59512;42.662;23.254;2022-07-23T00:11:09;9.97;;;4.97;;
71679;SDS011;59512;42.662;23.254;2022-07-23T00:13:35;11.93;;;4.83;;
71679;SDS011;59512;42.662;23.254;2022-07-23T00:16:00;11.03;;;5.10;;
71679;SDS011;59512;42.662;23.254;2022-07-23T00:18:25;12.73;;;5.10;;
71679;SDS011;59512;42.662;23.254;2022-07-23T00:20:50;12.53;;;5.20;;
71679;SDS011;59512;42.662;23.254;2022-07-23T00:23:16;10.00;;;4.67;;
71679;SDS011;59512;42.662;23.254;2022-07-23T00:25:41;11.23;;;5.40;;
71679;SDS011;59512;42.662;23.254;2022-07-23T00:28:07;11.20;;;5.17;;
71679;SDS011;59512;42.662;23.254;2022-07-23T00:30:32;10.10;;;4.87;;
71679;SDS011;59512;42.662;23.254;2022-07-23T00:32:59;10.30;;;5.00;;
71679;SDS011;59512;42.662;23.254;2022-07-23T00:35:25;11.85;;;5.60;;
71679;SDS011;59512;42.662;23.254;2022-07-23T00:37:50;11.35;;;4.88;;
71679;SDS011;59512;42.662;23.254;2022-07-23T00:40:16;9.53;;;4.97;;
71679;SDS011;59512;42.662;23.254;2022-07-23T00:42:41;11.40;;;5.33;;
71679;SDS011;59512;42.662;23.254;2022-07-23T00:45:07;10.97;;;5.37;;
71679;SDS011;59512;42.662;23.254;2022-07-23T00:47:32;10.52;;;5.78;;
71679;SDS011;59512;42.662;23.254;2022-07-23T00:49:58;11.70;;;5.67;;
71679;SDS011;59512;42.662;23.254;2022-07-23T00:52:23;12.97;;;5.80;;
71679;SDS011;59512;42.662;23.254;2022-07-23T00:54:48;9.87;;;5.43;;
71679;SDS011;59512;42.662;23.254;2022-07-23T00:57:14;12.73;;;5.55;;
71679;SDS011;59512;42.662;23.254;2022-07-23T00:59:40;8.97;;;5.07;;
71679;SDS011;59512;42.662;23.254;2022-07-23T01:02:05;10.53;;;5.30;;
71679;SDS011;59512;42.662;23.254;2022-07-23T01:04:30;9.25;;;4.97;;
71679;SDS011;59512;42.662;23.254;2022-07-23T01:06:56;10.77;;;5.23;;
71679;SDS011;59512;42.662;23.254;2022-07-23T01:09:21;10.10;;;5.13;;
71679;SDS011;59512;42.662;23.254;2022-07-23T01:11:47;12.20;;;5.70;;
71679;SDS011;59512;42.662;23.254;2022-07-23T01:14:13;11.50;;;5.27;;
71679;SDS011;59512;42.662;23.254;2022-07-23T01:16:39;12.73;;;5.75;;
71679;SDS011;59512;42.662;23.254;2022-07-23T01:19:05;9.57;;;5.57;;
71679;SDS011;59512;42.662;23.254;2022-07-23T01:21:32;9.27;;;5.28;;
71679;SDS011;59512;42.662;23.254;2022-07-23T01:23:58;12.18;;;5.32;;
71679;SDS011;59512;42.662;23.254;2022-07-23T01:26:23;11.55;;;6.20;;
71679;SDS011;59512;42.662;23.254;2022-07-23T01:28:48;9.90;;;5.20;;
71679;SDS011;59512;42.662;23.254;2022-07-23T01:31:13;11.20;;;5.38;;
71679;SDS011;59512;42.662;23.254;2022-07-23T01:33:39;11.82;;;6.35;;
71679;SDS011;59512;42.662;23.254;2022-07-23T01:36:04;12.75;;;5.65;;
71679;SDS011;59512;42.662;23.254;2022-07-23T01:38:29;11.37;;;5.80;;
71679;SDS011;59512;42.662;23.254;2022-07-23T01:40:54;12.17;;;6.40;;
71679;SDS011;59512;42.662;23.254;2022-07-23T01:43:20;12.27;;;6.00;;
71679;SDS011;59512;42.662;23.254;2022-07-23T01:45:45;10.73;;;6.10;;
71679;SDS011;59512;42.662;23.254;2022-07-23T01:48:10;10.60;;;5.70;;
71679;SDS011;59512;42.662;23.254;2022-07-23T01:50:36;10.60;;;6.10;;
71679;SDS011;59512;42.662;23.254;2022-07-23T01:53:01;12.77;;;5.87;;
71679;SDS011;59512;42.662;23.254;2022-07-23T01:55:26;11.60;;;6.53;;
71679;SDS011;59512;42.662;23.254;2022-07-23T01:57:52;10.95;;;5.72;;
71679;SDS011;59512;42.662;23.254;2022-07-23T02:00:17;11.55;;;6.53;;
71679;SDS011;59512;42.662;23.254;2022-07-23T02:02:42;13.32;;;6.38;;
71679;SDS011;59512;42.662;23.254;2022-07-23T02:05:08;9.97;;;5.83;;
71679;SDS011;59512;42.662;23.254;2022-07-23T02:07:33;10.77;;;6.17;;
71679;SDS011;59512;42.662;23.254;2022-07-23T02:09:58;12.63;;;6.40;;
71679;SDS011;59512;42.662;23.254;2022-07-23T02:12:24;12.30;;;6.63;;
71679;SDS011;59512;42.662;23.254;2022-07-23T02:14:49;12.03;;;6.57;;
71679;SDS011;59512;42.662;23.254;2022-07-23T02:17:14;12.20;;;6.83;;
71679;SDS011;59512;42.662;23.254;2022-07-23T02:19:39;10.63;;;6.10;;
71679;SDS011;59512;42.662;23.254;2022-07-23T02:22:05;13.67;;;6.90;;
71679;SDS011;59512;42.662;23.254;2022-07-23T02:24:30;11.17;;;6.33;;
71679;SDS011;59512;42.662;23.254;2022-07-23T02:26:55;11.18;;;6.03;;
71679;SDS011;59512;42.662;23.254;2022-07-23T02:29:20;13.38;;;6.38;;
71679;SDS011;59512;42.662;23.254;2022-07-23T02:31:46;12.07;;;5.97;;
71679;SDS011;59512;42.662;23.254;2022-07-23T02:34:11;9.63;;;6.00;;
71679;SDS011;59512;42.662;23.254;2022-07-23T02:36:37;12.37;;;5.83;;
71679;SDS011;59512;42.662;23.254;2022-07-23T02:39:02;11.25;;;6.55;;
71679;SDS011;59512;42.662;23.254;2022-07-23T02:41:28;12.40;;;6.13;;
71679;SDS011;59512;42.662;23.254;2022-07-23T02:43:53;11.20;;;6.00;;
71679;SDS011;59512;42.662;23.254;2022-07-23T02:46:18;10.47;;;6.17;;
71679;SDS011;59512;42.662;23.254;2022-07-23T02:48:44;10.90;;;5.60;;
71679;SDS011;59512;42.662;23.254;2022-07-23T02:51:09;12.97;;;5.73;;
71679;SDS011;59512;42.662;23.254;2022-07-23T02:53:34;10.90;;;5.73;;
71679;SDS011;59512;42.662;23.254;2022-07-23T02:55:59;12.37;;;6.13;;
71679;SDS011;59512;42.662;23.254;2022-07-23T02:58:25;13.10;;;5.70;;
71679;SDS011;59512;42.662;23.254;2022-07-23T03:00:51;11.18;;;5.63;;
71679;SDS011;59512;42.662;23.254;2022-07-23T03:03:16;12.10;;;6.07;;
71679;SDS011;59512;42.662;23.254;2022-07-23T03:05:42;12.47;;;5.83;;
71679;SDS011;59512;42.662;23.254;2022-07-23T03:08:07;15.50;;;7.03;;
71679;SDS011;59512;42.662;23.254;2022-07-23T03:10:32;11.57;;;6.23;;
71679;SDS011;59512;42.662;23.254;2022-07-23T03:12:58;14.75;;;6.22;;
71679;SDS011;59512;42.662;23.254;2022-07-23T03:15:23;12.10;;;6.07;;
71679;SDS011;59512;42.662;23.254;2022-07-23T03:17:48;13.23;;;6.20;;
71679;SDS011;59512;42.662;23.254;2022-07-23T03:20:14;11.40;;;5.90;;
71679;SDS011;59512;42.662;23.254;2022-07-23T03:22:39;11.33;;;5.80;;
71679;SDS011;59512;42.662;23.254;2022-07-23T03:25:04;11.97;;;5.90;;
71679;SDS011;59512;42.662;23.254;2022-07-23T03:27:30;10.27;;;5.47;;
71679;SDS011;59512;42.662;23.254;2022-07-23T03:29:56;14.53;;;6.40;;
71679;SDS011;59512;42.662;23.254;2022-07-23T03:32:22;12.32;;;5.70;;
71679;SDS011;59512;42.662;23.254;2022-07-23T03:34:47;12.27;;;5.78;;
71679;SDS011;59512;42.662;23.254;2022-07-23T03:37:13;14.87;;;5.57;;
71679;SDS011;59512;42.662;23.254;2022-07-23T03:39:38;11.97;;;5.57;;
71679;SDS011;59512;42.662;23.254;2022-07-23T03:42:03;12.82;;;5.53;;
71679;SDS011;59512;42.662;23.254;2022-07-23T03:44:29;13.45;;;5.90;;
71679;SDS011;59512;42.662;23.254;2022-07-23T03:46:54;10.60;;;5.13;;
71679;SDS011;59512;42.662;23.254;2022-07-23T03:49:19;11.23;;;5.93;;
71679;SDS011;59512;42.662;23.254;2022-07-23T03:51:45;12.97;;;5.63;;
71679;SDS011;59512;42.662;23.254;2022-07-23T03:54:10;15.50;;;5.50;;
71679;SDS011;59512;42.662;23.254;2022-07-23T03:56:35;10.00;;;5.37;;
71679;SDS011;59512;42.662;23.254;2022-07-23T03:59:01;10.13;;;5.80;;
71679;SDS011;59512;42.662;23.254;2022-07-23T04:01:26;14.20;;;5.93;;
71679;SDS011;59512;42.662;23.254;2022-07-23T04:03:51;9.53;;;5.47;;
71679;SDS011;59512;42.662;23.254;2022-07-23T04:06:17;12.93;;;5.73;;
71679;SDS011;59512;42.662;23.254;2022-07-23T04:08:42;12.73;;;6.00;;
71679;SDS011;59512;42.662;23.254;2022-07-23T04:11:07;12.33;;;6.40;;
71679;SDS011;59512;42.662;23.254;2022-07-23T04:13:33;15.87;;;5.90;;
71679;SDS011;59512;42.662;23.254;2022-07-23T04:15:58;14.13;;;6.30;;
71679;SDS011;59512;42.662;23.254;2022-07-23T04:18:23;12.07;;;6.03;;
71679;SDS011;59512;42.662;23.254;2022-07-23T04:20:50;17.07;;;6.43;;
71679;SDS011;59512;42.662;23.254;2022-07-23T04:23:16;15.75;;;7.00;;
71679;SDS011;59512;42.662;23.254;2022-07-23T04:25:41;15.35;;;6.65;;
71679;SDS011;59512;42.662;23.254;2022-07-23T04:28:07;16.13;;;6.67;;
71679;SDS011;59512;42.662;23.254;2022-07-23T04:30:32;12.47;;;6.47;;
71679;SDS011;59512;42.662;23.254;2022-07-23T04:32:57;15.93;;;6.17;;
71679;SDS011;59512;42.662;23.254;2022-07-23T04:35:22;14.47;;;6.63;;
71679;SDS011;59512;42.662;23.254;2022-07-23T04:37:48;15.10;;;6.93;;
71679;SDS011;59512;42.662;23.254;2022-07-23T04:40:13;13.80;;;6.87;;
71679;SDS011;59512;42.662;23.254;2022-07-23T04:42:38;12.37;;;6.10;;
71679;SDS011;59512;42.662;23.254;2022-07-23T04:45:04;16.67;;;6.68;;
71679;SDS011;59512;42.662;23.254;2022-07-23T04:47:30;12.57;;;7.20;;
71679;SDS011;59512;42.662;23.254;2022-07-23T04:49:55;11.48;;;6.43;;
71679;SDS011;59512;42.662;23.254;2022-07-23T04:52:21;13.40;;;6.47;;
71679;SDS011;59512;42.662;23.254;2022-07-23T04:54:46;14.37;;;6.40;;
71679;SDS011;59512;42.662;23.254;2022-07-23T04:57:11;16.60;;;6.97;;
71679;SDS011;59512;42.662;23.254;2022-07-23T04:59:36;15.43;;;6.00;;
71679;SDS011;59512;42.662;23.254;2022-07-23T05:02:02;12.47;;;6.20;;
71679;SDS011;59512;42.662;23.254;2022-07-23T05:04:27;15.57;;;6.40;;
71679;SDS011;59512;42.662;23.254;2022-07-23T05:06:52;12.70;;;6.10;;
71679;SDS011;59512;42.662;23.254;2022-07-23T05:09:17;13.50;;;6.40;;
71679;SDS011;59512;42.662;23.254;2022-07-23T05:11:43;12.63;;;6.77;;
71679;SDS011;59512;42.662;23.254;2022-07-23T05:14:08;11.17;;;6.23;;
71679;SDS011;59512;42.662;23.254;2022-07-23T05:16:33;13.33;;;6.30;;
71679;SDS011;59512;42.662;23.254;2022-07-23T05:18:58;14.70;;;6.70;;
71679;SDS011;59512;42.662;23.254;2022-07-23T05:21:24;14.30;;;6.73;;
71679;SDS011;59512;42.662;23.254;2022-07-23T05:23:49;13.77;;;6.87;;
71679;SDS011;59512;42.662;23.254;2022-07-23T05:26:14;18.27;;;6.80;;
71679;SDS011;59512;42.662;23.254;2022-07-23T05:28:40;10.60;;;5.95;;
71679;SDS011;59512;42.662;23.254;2022-07-23T05:31:05;12.40;;;6.20;;
71679;SDS011;59512;42.662;23.254;2022-07-23T05:33:31;12.83;;;6.67;;
71679;SDS011;59512;42.662;23.254;2022-07-23T05:36:00;13.13;;;6.90;;
71679;SDS011;59512;42.662;23.254;2022-07-23T05:38:25;16.02;;;7.15;;
71679;SDS011;59512;42.662;23.254;2022-07-23T05:40:50;12.70;;;6.80;;
71679;SDS011;59512;42.662;23.254;2022-07-23T05:43:16;16.03;;;6.67;;
71679;SDS011;59512;42.662;23.254;2022-07-23T05:45:41;13.25;;;6.80;;
71679;SDS011;59512;42.662;23.254;2022-07-23T05:48:06;13.03;;;6.57;;
71679;SDS011;59512;42.662;23.254;2022-07-23T05:50:31;13.50;;;6.67;;
71679;SDS011;59512;42.662;23.254;2022-07-23T05:52:57;14.20;;;7.17;;
71679;SDS011;59512;42.662;23.254;2022-07-23T05:55:22;14.00;;;6.00;;
71679;SDS011;59512;42.662;23.254;2022-07-23T05:57:47;13.47;;;6.27;;
71679;SDS011;59512;42.662;23.254;2022-07-23T06:00:13;10.30;;;5.60;;
71679;SDS011;59512;42.662;23.254;2022-07-23T06:02:38;10.90;;;6.10;;
71679;SDS011;59512;42.662;23.254;2022-07-23T06:05:04;13.38;;;6.80;;
71679;SDS011;59512;42.662;23.254;2022-07-23T06:07:30;13.43;;;6.70;;
71679;SDS011;59512;42.662;23.254;2022-07-23T06:09:55;14.20;;;6.23;;
71679;SDS011;59512;42.662;23.254;2022-07-23T06:12:20;13.80;;;6.20;;
71679;SDS011;59512;42.662;23.254;2022-07-23T06:14:45;12.13;;;7.40;;
71679;SDS011;59512;42.662;23.254;2022-07-23T06:17:13;10.98;;;7.10;;
71679;SDS011;59512;42.662;23.254;2022-07-23T06:19:38;11.83;;;6.63;;
71679;SDS011;59512;42.662;23.254;2022-07-23T06:22:04;14.73;;;7.65;;
71679;SDS011;59512;42.662;23.254;2022-07-23T06:24:29;12.40;;;7.53;;
71679;SDS011;59512;42.662;23.254;2022-07-23T06:26:54;12.47;;;7.17;;
71679;SDS011;59512;42.662;23.254;2022-07-23T06:29:20;13.67;;;7.67;;
71679;SDS011;59512;42.662;23.254;2022-07-23T06:31:45;13.60;;;7.50;;
71679;SDS011;59512;42.662;23.254;2022-07-23T06:34:10;11.97;;;6.67;;
71679;SDS011;59512;42.662;23.254;2022-07-23T06:36:35;15.83;;;7.20;;
71679;SDS011;59512;42.662;23.254;2022-07-23T06:39:01;16.77;;;7.63;;
71679;SDS011;59512;42.662;23.254;2022-07-23T06:41:26;12.90;;;7.63;;
71679;SDS011;59512;42.662;23.254;2022-07-23T06:43:51;12.13;;;7.93;;
71679;SDS011;59512;42.662;23.254;2022-07-23T06:46:17;11.88;;;7.07;;
71679;SDS011;59512;42.662;23.254;2022-07-23T06:48:42;12.57;;;7.93;;
71679;SDS011;59512;42.662;23.254;2022-07-23T06:51:07;17.03;;;7.63;;
71679;SDS011;59512;42.662;23.254;2022-07-23T06:53:33;12.17;;;7.00;;
71679;SDS011;59512;42.662;23.254;2022-07-23T06:55:58;12.30;;;7.30;;
71679;SDS011;59512;42.662;23.254;2022-07-23T06:58:23;18.73;;;8.40;;
71679;SDS011;59512;42.662;23.254;2022-07-23T07:00:48;12.93;;;7.73;;
71679;SDS011;59512;42.662;23.254;2022-07-23T07:03:14;13.03;;;7.23;;
71679;SDS011;59512;42.662;23.254;2022-07-23T07:05:39;11.60;;;7.47;;
71679;SDS011;59512;42.662;23.254;2022-07-23T07:08:05;13.13;;;7.63;;
71679;SDS011;59512;42.662;23.254;2022-07-23T07:10:30;13.50;;;7.57;;
71679;SDS011;59512;42.662;23.254;2022-07-23T07:12:56;12.17;;;7.53;;
71679;SDS011;59512;42.662;23.254;2022-07-23T07:15:21;17.27;;;7.65;;
71679;SDS011;59512;42.662;23.254;2022-07-23T07:17:46;12.23;;;7.50;;
71679;SDS011;59512;42.662;23.254;2022-07-23T07:20:12;13.97;;;8.10;;
71679;SDS011;59512;42.662;23.254;2022-07-23T07:22:37;16.47;;;7.97;;
71679;SDS011;59512;42.662;23.254;2022-07-23T07:25:03;16.00;;;8.20;;
71679;SDS011;59512;42.662;23.254;2022-07-23T07:27:28;16.45;;;8.60;;
71679;SDS011;59512;42.662;23.254;2022-07-23T07:29:53;14.90;;;8.13;;
71679;SDS011;59512;42.662;23.254;2022-07-23T07:32:19;15.43;;;8.43;;
71679;SDS011;59512;42.662;23.254;2022-07-23T07:34:44;15.90;;;8.47;;
71679;SDS011;59512;42.662;23.254;2022-07-23T07:37:09;13.40;;;8.73;;
71679;SDS011;59512;42.662;23.254;2022-07-23T07:39:34;13.70;;;8.87;;
71679;SDS011;59512;42.662;23.254;2022-07-23T07:42:00;14.13;;;8.73;;
71679;SDS011;59512;42.662;23.254;2022-07-23T07:44:25;16.30;;;8.83;;
71679;SDS011;59512;42.662;23.254;2022-07-23T07:46:50;18.13;;;9.30;;
71679;SDS011;59512;42.662;23.254;2022-07-23T07:49:16;17.20;;;8.60;;
71679;SDS011;59512;42.662;23.254;2022-07-23T07:51:44;14.27;;;8.15;;
71679;SDS011;59512;42.662;23.254;2022-07-23T07:54:09;16.80;;;8.33;;
71679;SDS011;59512;42.662;23.254;2022-07-23T07:56:34;13.67;;;7.90;;
71679;SDS011;59512;42.662;23.254;2022-07-23T07:59:00;13.03;;;7.70;;
71679;SDS011;59512;42.662;23.254;2022-07-23T08:01:26;15.05;;;8.05;;
71679;SDS011;59512;42.662;23.254;2022-07-23T08:03:51;12.73;;;7.90;;
71679;SDS011;59512;42.662;23.254;2022-07-23T08:06:16;14.70;;;8.27;;
71679;SDS011;59512;42.662;23.254;2022-07-23T08:08:42;12.90;;;7.93;;
71679;SDS011;59512;42.662;23.254;2022-07-23T08:11:07;17.13;;;8.20;;
71679;SDS011;59512;42.662;23.254;2022-07-23T08:13:33;12.10;;;7.87;;
71679;SDS011;59512;42.662;23.254;2022-07-23T08:15:58;15.57;;;8.10;;
71679;SDS011;59512;42.662;23.254;2022-07-23T08:18:23;15.53;;;7.80;;
71679;SDS011;59512;42.662;23.254;2022-07-23T08:20:49;15.73;;;8.10;;
71679;SDS011;59512;42.662;23.254;2022-07-23T08:23:14;17.33;;;8.23;;
71679;SDS011;59512;42.662;23.254;2022-07-23T08:25:40;17.23;;;8.20;;
71679;SDS011;59512;42.662;23.254;2022-07-23T08:28:07;15.77;;;7.83;;
71679;SDS011;59512;42.662;23.254;2022-07-23T08:30:33;11.82;;;7.53;;
71679;SDS011;59512;42.662;23.254;2022-07-23T08:33:00;13.30;;;7.80;;
71679;SDS011;59512;42.662;23.254;2022-07-23T08:35:30;12.73;;;7.30;;
71679;SDS011;59512;42.662;23.254;2022-07-23T08:37:56;13.63;;;7.77;;
71679;SDS011;59512;42.662;23.254;2022-07-23T08:40:22;16.52;;;8.20;;
71679;SDS011;59512;42.662;23.254;2022-07-23T08:42:48;13.70;;;8.17;;
71679;SDS011;59512;42.662;23.254;2022-07-23T08:45:13;16.02;;;8.00;;
71679;SDS011;59512;42.662;23.254;2022-07-23T08:47:40;15.48;;;7.68;;
71679;SDS011;59512;42.662;23.254;2022-07-23T08:50:06;18.57;;;7.90;;
71679;SDS011;59512;42.662;23.254;2022-07-23T08:52:32;13.05;;;7.88;;
71679;SDS011;59512;42.662;23.254;2022-07-23T08:54:57;13.37;;;8.00;;
71679;SDS011;59512;42.662;23.254;2022-07-23T08:57:23;16.55;;;7.47;;
71679;SDS011;59512;42.662;23.254;2022-07-23T08:59:48;16.90;;;8.50;;
71679;SDS011;59512;42.662;23.254;2022-07-23T09:02:14;15.67;;;7.93;;
71679;SDS011;59512;42.662;23.254;2022-07-23T09:04:39;15.13;;;8.43;;
71679;SDS011;59512;42.662;23.254;2022-07-23T09:07:04;16.13;;;7.43;;
71679;SDS011;59512;42.662;23.254;2022-07-23T09:09:29;13.80;;;7.70;;
71679;SDS011;59512;42.662;23.254;2022-07-23T09:12:03;12.30;;;7.65;;
71679;SDS011;59512;42.662;23.254;2022-07-23T09:14:35;15.00;;;6.72;;
71679;SDS011;59512;42.662;23.254;2022-07-23T09:17:07;15.63;;;7.53;;
71679;SDS011;59512;42.662;23.254;2022-07-23T09:19:33;12.57;;;6.70;;
71679;SDS011;59512;42.662;23.254;2022-07-23T09:22:06;14.97;;;7.30;;
71679;SDS011;59512;42.662;23.254;2022-07-23T09:25:01;12.77;;;6.68;;
71679;SDS011;59512;42.662;23.254;2022-07-23T09:27:26;28.20;;;17.52;;
71679;SDS011;59512;42.662;23.254;2022-07-23T09:30:09;14.27;;;7.85;;
71679;SDS011;59512;42.662;23.254;2022-07-23T09:32:35;16.13;;;7.40;;
71679;SDS011;59512;42.662;23.254;2022-07-23T09:35:00;10.87;;;7.43;;
71679;SDS011;59512;42.662;23.254;2022-07-23T09:37:25;11.70;;;7.27;;
71679;SDS011;59512;42.662;23.254;2022-07-23T09:39:50;15.23;;;6.80;;
71679;SDS011;59512;42.662;23.254;2022-07-23T09:42:17;17.60;;;7.00;;
71679;SDS011;59512;42.662;23.254;2022-07-23T09:44:43;12.45;;;6.00;;
71679;SDS011;59512;42.662;23.254;2022-07-23T09:47:09;12.82;;;6.38;;
71679;SDS011;59512;42.662;23.254;2022-07-23T09:49:34;13.57;;;6.27;;
71679;SDS011;59512;42.662;23.254;2022-07-23T09:52:00;11.07;;;5.50;;
71679;SDS011;59512;42.662;23.254;2022-07-23T09:56:53;10.30;;;5.60;;
71679;SDS011;59512;42.662;23.254;2022-07-23T09:59:20;11.20;;;6.40;;
71679;SDS011;59512;42.662;23.254;2022-07-23T10:01:47;10.57;;;6.40;;
71679;SDS011;59512;42.662;23.254;2022-07-23T10:04:12;17.83;;;7.10;;
71679;SDS011;59512;42.662;23.254;2022-07-23T10:06:39;14.15;;;6.50;;
71679;SDS011;59512;42.662;23.254;2022-07-23T10:09:04;12.10;;;6.55;;
71679;SDS011;59512;42.662;23.254;2022-07-23T10:11:30;10.63;;;6.45;;
71679;SDS011;59512;42.662;23.254;2022-07-23T10:13:55;13.83;;;6.50;;
71679;SDS011;59512;42.662;23.254;2022-07-23T10:16:23;10.43;;;5.93;;
71679;SDS011;59512;42.662;23.254;2022-07-23T10:18:48;12.20;;;6.63;;
71679;SDS011;59512;42.662;23.254;2022-07-23T10:24:01;10.98;;;5.90;;
71679;SDS011;59512;42.662;23.254;2022-07-23T10:26:37;9.73;;;5.73;;
71679;SDS011;59512;42.662;23.254;2022-07-23T10:29:09;12.63;;;5.97;;
71679;SDS011;59512;42.662;23.254;2022-07-23T10:36:42;16.03;;;6.70;;
71679;SDS011;59512;42.662;23.254;2022-07-23T10:41:41;12.40;;;5.87;;
71679;SDS011;59512;42.662;23.254;2022-07-23T10:46:31;13.27;;;6.10;;
71679;SDS011;59512;42.662;23.254;2022-07-23T10:49:20;12.93;;;5.90;;
71679;SDS011;59512;42.662;23.254;2022-07-23T10:54:29;12.17;;;5.57;;
71679;SDS011;59512;42.662;23.254;2022-07-23T10:59:19;14.80;;;5.60;;
71679;SDS011;59512;42.662;23.254;2022-07-23T11:01:45;14.10;;;5.70;;
71679;SDS011;59512;42.662;23.254;2022-07-23T11:04:10;13.63;;;5.33;;
71679;SDS011;59512;42.662;23.254;2022-07-23T11:09:27;16.10;;;5.70;;
71679;SDS011;59512;42.662;23.254;2022-07-23T11:17:21;9.57;;;4.82;;
71679;SDS011;59512;42.662;23.254;2022-07-23T11:22:34;11.82;;;4.57;;
71679;SDS011;59512;42.662;23.254;2022-07-23T11:25:00;14.37;;;5.10;;
71679;SDS011;59512;42.662;23.254;2022-07-23T11:27:36;11.55;;;5.00;;
71679;SDS011;59512;42.662;23.254;2022-07-23T11:30:02;16.07;;;4.90;;
71679;SDS011;59512;42.662;23.254;2022-07-23T11:32:31;14.00;;;4.80;;
71679;SDS011;59512;42.662;23.254;2022-07-23T11:34:58;15.73;;;5.18;;
71679;SDS011;59512;42.662;23.254;2022-07-23T11:37:37;11.27;;;5.33;;
71679;SDS011;59512;42.662;23.254;2022-07-23T11:40:07;13.70;;;5.13;;
71679;SDS011;59512;42.662;23.254;2022-07-23T11:42:33;12.27;;;5.10;;
71679;SDS011;59512;42.662;23.254;2022-07-23T11:44:59;17.43;;;6.23;;
71679;SDS011;59512;42.662;23.254;2022-07-23T11:47:26;11.30;;;5.00;;
71679;SDS011;59512;42.662;23.254;2022-07-23T11:49:52;13.20;;;5.00;;
71679;SDS011;59512;42.662;23.254;2022-07-23T11:52:17;16.40;;;5.18;;
71679;SDS011;59512;42.662;23.254;2022-07-23T11:54:47;17.00;;;5.37;;
71679;SDS011;59512;42.662;23.254;2022-07-23T11:57:12;17.45;;;4.75;;
71679;SDS011;59512;42.662;23.254;2022-07-23T11:59:37;14.13;;;5.00;;
71679;SDS011;59512;42.662;23.254;2022-07-23T12:02:04;12.52;;;4.75;;
71679;SDS011;59512;42.662;23.254;2022-07-23T12:04:46;18.58;;;5.05;;
71679;SDS011;59512;42.662;23.254;2022-07-23T12:09:57;15.07;;;4.73;;
71679;SDS011;59512;42.662;23.254;2022-07-23T12:12:22;17.15;;;5.00;;
71679;SDS011;59512;42.662;23.254;2022-07-23T12:14:52;14.30;;;4.40;;
71679;SDS011;59512;42.662;23.254;2022-07-23T12:17:18;13.35;;;4.50;;
71679;SDS011;59512;42.662;23.254;2022-07-23T12:19:43;17.60;;;5.40;;
71679;SDS011;59512;42.662;23.254;2022-07-23T12:22:08;20.65;;;5.25;;
71679;SDS011;59512;42.662;23.254;2022-07-23T12:27:20;17.65;;;5.47;;
71679;SDS011;59512;42.662;23.254;2022-07-23T12:29:45;13.88;;;5.38;;
71679;SDS011;59512;42.662;23.254;2022-07-23T12:32:23;14.63;;;4.87;;
71679;SDS011;59512;42.662;23.254;2022-07-23T12:35:00;15.17;;;5.33;;
71679;SDS011;59512;42.662;23.254;2022-07-23T12:37:29;11.13;;;4.85;;
71679;SDS011;59512;42.662;23.254;2022-07-23T12:39:54;12.30;;;5.03;;
71679;SDS011;59512;42.662;23.254;2022-07-23T12:42:19;12.87;;;4.73;;
71679;SDS011;59512;42.662;23.254;2022-07-23T12:45:07;16.87;;;5.47;;
71679;SDS011;59512;42.662;23.254;2022-07-23T12:51:17;16.88;;;5.40;;
71679;SDS011;59512;42.662;23.254;2022-07-23T12:53:12;17.92;;;5.00;;
71679;SDS011;59512;42.662;23.254;2022-07-23T12:55:38;10.10;;;4.50;;
71679;SDS011;59512;42.662;23.254;2022-07-23T12:58:04;14.03;;;5.27;;
71679;SDS011;59512;42.662;23.254;2022-07-23T13:00:30;12.27;;;5.65;;
71679;SDS011;59512;42.662;23.254;2022-07-23T13:02:55;14.23;;;5.60;;
71679;SDS011;59512;42.662;23.254;2022-07-23T13:05:20;11.40;;;5.27;;
71679;SDS011;59512;42.662;23.254;2022-07-23T13:07:46;13.63;;;5.33;;
71679;SDS011;59512;42.662;23.254;2022-07-23T13:10:11;14.57;;;5.63;;
71679;SDS011;59512;42.662;23.254;2022-07-23T13:12:37;11.50;;;5.00;;
71679;SDS011;59512;42.662;23.254;2022-07-23T13:15:02;13.30;;;5.10;;
71679;SDS011;59512;42.662;23.254;2022-07-23T13:17:28;12.85;;;5.40;;
71679;SDS011;59512;42.662;23.254;2022-07-23T13:19:53;17.53;;;5.27;;
71679;SDS011;59512;42.662;23.254;2022-07-23T13:22:18;15.60;;;5.37;;
71679;SDS011;59512;42.662;23.254;2022-07-23T13:24:43;13.17;;;5.67;;
71679;SDS011;59512;42.662;23.254;2022-07-23T13:27:09;12.60;;;4.83;;
71679;SDS011;59512;42.662;23.254;2022-07-23T13:29:34;15.20;;;5.70;;
71679;SDS011;59512;42.662;23.254;2022-07-23T13:31:59;14.07;;;5.17;;
71679;SDS011;59512;42.662;23.254;2022-07-23T13:34:24;13.47;;;5.53;;
71679;SDS011;59512;42.662;23.254;2022-07-23T13:36:50;12.53;;;5.00;;
71679;SDS011;59512;42.662;23.254;2022-07-23T13:39:15;9.80;;;4.50;;
71679;SDS011;59512;42.662;23.254;2022-07-23T13:41:40;12.70;;;4.63;;
71679;SDS011;59512;42.662;23.254;2022-07-23T13:44:06;13.00;;;4.80;;
71679;SDS011;59512;42.662;23.254;2022-07-23T13:46:31;12.90;;;4.90;;
71679;SDS011;59512;42.662;23.254;2022-07-23T13:48:56;11.40;;;4.47;;
71679;SDS011;59512;42.662;23.254;2022-07-23T13:51:22;12.43;;;4.47;;
71679;SDS011;59512;42.662;23.254;2022-07-23T13:53:49;11.35;;;3.67;;
71679;SDS011;59512;42.662;23.254;2022-07-23T13:56:14;12.47;;;4.40;;
71679;SDS011;59512;42.662;23.254;2022-07-23T13:58:39;11.07;;;4.43;;
71679;SDS011;59512;42.662;23.254;2022-07-23T14:01:05;15.10;;;4.33;;
71679;SDS011;59512;42.662;23.254;2022-07-23T14:03:30;10.97;;;4.20;;
71679;SDS011;59512;42.662;23.254;2022-07-23T14:05:56;14.23;;;4.40;;
71679;SDS011;59512;42.662;23.254;2022-07-23T14:08:21;11.60;;;4.80;;
71679;SDS011;59512;42.662;23.254;2022-07-23T14:10:46;10.70;;;4.27;;
71679;SDS011;59512;42.662;23.254;2022-07-23T14:13:12;13.87;;;5.10;;
71679;SDS011;59512;42.662;23.254;2022-07-23T14:15:37;10.40;;;4.07;;
71679;SDS011;59512;42.662;23.254;2022-07-23T14:18:05;10.18;;;4.60;;
71679;SDS011;59512;42.662;23.254;2022-07-23T14:20:30;12.07;;;4.40;;
71679;SDS011;59512;42.662;23.254;2022-07-23T14:22:55;13.87;;;4.50;;
71679;SDS011;59512;42.662;23.254;2022-07-23T14:25:23;12.15;;;4.38;;
71679;SDS011;59512;42.662;23.254;2022-07-23T14:27:48;12.47;;;4.97;;
71679;SDS011;59512;42.662;23.254;2022-07-23T14:30:13;10.93;;;4.30;;
71679;SDS011;59512;42.662;23.254;2022-07-23T14:32:40;12.88;;;4.70;;
71679;SDS011;59512;42.662;23.254;2022-07-23T14:35:05;13.17;;;4.60;;
71679;SDS011;59512;42.662;23.254;2022-07-23T14:37:31;13.48;;;4.80;;
71679;SDS011;59512;42.662;23.254;2022-07-23T14:39:56;12.53;;;4.87;;
71679;SDS011;59512;42.662;23.254;2022-07-23T14:42:21;11.00;;;4.63;;
71679;SDS011;59512;42.662;23.254;2022-07-23T14:44:48;14.83;;;5.37;;
71679;SDS011;59512;42.662;23.254;2022-07-23T14:47:14;11.20;;;5.05;;
71679;SDS011;59512;42.662;23.254;2022-07-23T14:49:39;9.93;;;4.63;;
71679;SDS011;59512;42.662;23.254;2022-07-23T14:52:05;13.43;;;5.60;;
71679;SDS011;59512;42.662;23.254;2022-07-23T14:54:30;12.13;;;4.63;;